Vremea acum in Ovidiu - Romania

Vrei sa afli care e starea vremii acum in Constanta - Romania? Dorim sa iti furnizam starea vremii pentru Constanta - Romania. Starea vremii Constanta - Romania pentru astazi.

Vremea acum in Ovidiu

Temperatura: 5.3 °C

Este: Senin
Se simte ca: 3.1 °C
Innorat: 0 %
Precipitatii: 0 %
Presiune atmosferica: 1015 hPa
Umiditate: 75%
Vizibilitate: 10 km
Vantul bate din N cu 9.7 km/h

Evolutia vremii in Ovidiu pe ore

Ora: 05:00
Senin
Temperatura: 9.7°C
Sansa de precipitatii: 0%
Ora Descriere Temp Se simte Precipitatii Umiditate Vant
00:00Senin11°10.5°0%68%N 6.5 KM/H
01:00Senin10.4°9.8°0%69%NNW 6.5 KM/H
02:00Senin10.2°9.4°0%69%NNW 7.2 KM/H
03:00Senin9.9°8.7°0%68%NNW 9 KM/H
04:00Senin5.3°8.4°0%75%N 9.7 KM/H
05:00Senin9.7°8.2°0%69%N 10.8 KM/H
06:00Senin9.6°7.8°0%71%N 12.6 KM/H
07:00Senin10.4°8.8°0%70%N 11.9 KM/H
08:00Senin12°10.7°0%67%NE 12.2 KM/H
09:00Senin13.1°11.8°0%66%ENE 14.4 KM/H
10:00Senin13.7°12.4°0%65%ENE 14.8 KM/H
11:00Senin13.9°12.8°0%65%E 14.8 KM/H
12:00Senin14.1°13.1°0%66%E 14.4 KM/H
13:00Senin14.3°13.4°0%66%ESE 13 KM/H
14:00Senin14.5°13.8°0%64%ESE 11.2 KM/H
15:00Senin14.6°14.1°0%63%ESE 10.1 KM/H
16:00Senin14.6°14.3°0%62%ESE 9.4 KM/H
17:00Senin14.5°14.1°0%61%SE 9.7 KM/H
18:00Senin14.2°13.5°0%62%SE 11.5 KM/H
19:00Senin13.5°12.4°0%69%SSE 13 KM/H
20:00Senin11.9°10.3°0%76%SSE 14.8 KM/H
21:00Senin11.2°9.4°0%79%SSE 15.1 KM/H
22:00Senin11.2°9.4°0%78%S 15.5 KM/H
23:00Senin11.3°9.7°0%77%S 13.3 KM/H




tutorials